createdAt,value
2022-08-24T00:01:08.975Z,9.07
2022-08-24T00:06:19.645Z,10.60
2022-08-24T00:11:24.951Z,10.00
2022-08-24T00:16:30.160Z,10.97
2022-08-24T00:21:40.014Z,9.30
2022-08-24T00:26:46.115Z,8.80
2022-08-24T00:31:51.280Z,12.10
2022-08-24T00:36:58.984Z,11.13
2022-08-24T00:42:04.036Z,10.23
2022-08-24T00:47:19.869Z,12.13
2022-08-24T00:52:33.507Z,11.83
2022-08-24T00:57:44.209Z,12.53
2022-08-24T01:02:53.510Z,12.27
2022-08-24T01:08:01.513Z,11.20
2022-08-24T01:13:09.850Z,13.07
2022-08-24T01:18:31.552Z,9.70
2022-08-24T01:23:44.078Z,11.47
2022-08-24T01:28:53.267Z,11.63
2022-08-24T01:33:59.036Z,11.43
2022-08-24T01:39:12.825Z,10.20
2022-08-24T01:44:17.943Z,14.53
2022-08-24T01:49:24.757Z,18.07
2022-08-24T01:54:32.341Z,17.17
2022-08-24T01:59:37.591Z,12.87
2022-08-24T02:04:44.258Z,13.60
2022-08-24T02:09:53.422Z,11.60
2022-08-24T02:14:58.640Z,12.23
2022-08-24T02:20:03.877Z,11.33
2022-08-24T02:25:12.070Z,11.37
2022-08-24T02:30:20.713Z,13.03
2022-08-24T02:35:26.070Z,15.23
2022-08-24T02:40:33.903Z,13.67
2022-08-24T02:45:42.499Z,14.30
2022-08-24T02:50:51.373Z,15.07
2022-08-24T02:55:59.314Z,16.67
2022-08-24T03:01:05.496Z,16.40
2022-08-24T03:06:23.096Z,12.70
2022-08-24T03:11:30.813Z,13.87
2022-08-24T03:16:36.829Z,12.97
2022-08-24T03:21:41.889Z,13.30
2022-08-24T03:26:49.576Z,18.23
2022-08-24T03:31:54.635Z,10.97
2022-08-24T03:37:00.612Z,12.73
2022-08-24T03:42:09.554Z,17.50
2022-08-24T03:47:14.527Z,12.83
2022-08-24T03:52:20.190Z,18.80
2022-08-24T03:57:32.277Z,14.83
2022-08-24T04:02:37.692Z,13.27
2022-08-24T04:07:43.267Z,12.33
2022-08-24T04:12:51.506Z,13.27
2022-08-24T04:18:00.140Z,12.17
2022-08-24T04:23:16.343Z,12.47
2022-08-24T04:28:27.071Z,15.17
2022-08-24T04:33:32.076Z,17.30
2022-08-24T04:38:37.110Z,18.00
2022-08-24T04:44:08.607Z,15.20
2022-08-24T04:49:14.124Z,14.97
2022-08-24T04:54:21.524Z,14.97
2022-08-24T04:59:41.337Z,14.33
2022-08-24T05:04:47.086Z,16.70
2022-08-24T05:09:52.330Z,14.70
2022-08-24T05:15:03.326Z,14.13
2022-08-24T05:20:14.580Z,16.90
2022-08-24T05:25:20.073Z,15.37
2022-08-24T05:30:27.622Z,14.73
2022-08-24T05:35:33.160Z,16.17
2022-08-24T05:40:42.348Z,17.83
2022-08-24T05:45:50.762Z,17.03
2022-08-24T05:50:56.568Z,16.00
2022-08-24T05:56:06.935Z,17.80
2022-08-24T06:01:18.561Z,21.80
2022-08-24T06:06:25.281Z,16.20
2022-08-24T06:11:32.281Z,14.47
2022-08-24T06:16:45.328Z,23.23
2022-08-24T06:21:52.952Z,18.87
2022-08-24T06:27:10.527Z,16.13
2022-08-24T06:32:18.118Z,20.10
2022-08-24T06:37:26.662Z,16.07
2022-08-24T06:42:35.208Z,18.00
2022-08-24T06:47:59.227Z,15.83
2022-08-24T06:53:06.120Z,16.73
2022-08-24T06:58:11.607Z,14.90
2022-08-24T07:03:21.105Z,17.37
2022-08-24T07:08:34.461Z,15.20
2022-08-24T07:13:40.230Z,15.77
2022-08-24T07:18:49.797Z,19.10
2022-08-24T07:24:01.281Z,16.00
2022-08-24T07:29:36.817Z,15.00
2022-08-24T07:34:46.535Z,12.53
2022-08-24T07:39:51.589Z,15.03
2022-08-24T07:44:57.579Z,18.37
2022-08-24T07:50:05.887Z,16.77
2022-08-24T07:55:12.636Z,12.70
2022-08-24T08:00:20.734Z,15.43
2022-08-24T08:05:34.241Z,14.80
2022-08-24T08:10:40.796Z,15.83
2022-08-24T08:15:46.220Z,16.20
2022-08-24T08:20:54.937Z,11.53
2022-08-24T08:26:02.001Z,12.87
2022-08-24T08:31:22.165Z,12.53
2022-08-24T08:36:31.585Z,12.63
2022-08-24T08:42:15.187Z,10.33
2022-08-24T08:47:52.443Z,11.00
2022-08-24T08:53:25.051Z,13.67
2022-08-24T08:58:57.527Z,12.50
2022-08-24T09:04:55.654Z,15.90
2022-08-24T09:10:29.070Z,11.67
2022-08-24T09:15:51.229Z,15.37
2022-08-24T09:21:18.645Z,14.63
2022-08-24T09:26:29.925Z,15.30
2022-08-24T09:31:51.800Z,16.63
2022-08-24T09:37:05.089Z,15.70
2022-08-24T09:42:48.574Z,11.60
2022-08-24T09:48:16.886Z,14.50
2022-08-24T09:53:58.253Z,12.83
2022-08-24T09:59:21.341Z,14.00
2022-08-24T10:04:38.746Z,14.25
2022-08-24T10:10:20.478Z,13.55
2022-08-24T10:15:32.698Z,12.38
2022-08-24T10:20:55.533Z,13.83
2022-08-24T10:26:07.781Z,16.63
2022-08-24T10:31:15.012Z,14.88
2022-08-24T10:36:50.939Z,17.97
2022-08-24T10:42:44.710Z,21.83
2022-08-24T10:48:15.351Z,19.60
2022-08-24T10:53:29.587Z,18.90
2022-08-24T10:58:56.095Z,15.23
2022-08-24T11:04:05.178Z,12.57
2022-08-24T11:09:19.680Z,13.95
2022-08-24T11:14:32.494Z,12.27
2022-08-24T11:19:38.309Z,19.27
2022-08-24T11:24:51.457Z,15.13
2022-08-24T11:30:06.339Z,15.07
2022-08-24T11:35:21.243Z,14.68
2022-08-24T11:40:32.795Z,17.87
2022-08-24T11:45:44.724Z,16.63
2022-08-24T11:50:58.897Z,15.85
2022-08-24T11:56:18.689Z,13.50
2022-08-24T12:01:30.607Z,19.10
2022-08-24T12:06:49.170Z,19.45
2022-08-24T12:12:06.794Z,15.98
2022-08-24T12:17:19.563Z,14.33
2022-08-24T12:22:25.687Z,13.30
2022-08-24T12:27:37.970Z,14.25
2022-08-24T12:32:48.334Z,13.90
2022-08-24T12:38:00.935Z,18.40
2022-08-24T12:43:11.895Z,15.27
2022-08-24T12:48:26.932Z,14.35
2022-08-24T12:53:47.737Z,12.60
2022-08-24T12:59:06.200Z,14.82
2022-08-24T13:04:20.647Z,15.52
2022-08-24T13:09:37.703Z,15.70
2022-08-24T13:14:54.041Z,18.17
2022-08-24T13:20:23.580Z,16.85
2022-08-24T13:25:46.453Z,18.13
2022-08-24T13:31:26.790Z,19.13
2022-08-24T13:37:14.397Z,16.25
2022-08-24T13:42:32.153Z,25.83
2022-08-24T13:47:52.520Z,15.82
2022-08-24T13:53:16.539Z,21.25
2022-08-24T13:58:38.460Z,17.45
2022-08-24T14:04:11.309Z,18.45
2022-08-24T14:09:37.464Z,20.70
2022-08-24T14:15:09.623Z,16.98
2022-08-24T14:20:22.473Z,18.58
2022-08-24T14:25:33.932Z,19.25
2022-08-24T14:30:50.258Z,17.02
2022-08-24T14:36:21.365Z,19.25
2022-08-24T14:41:47.903Z,17.83
2022-08-24T14:47:05.960Z,14.88
2022-08-24T14:52:23.355Z,12.30
2022-08-24T14:58:00.618Z,12.55
2022-08-24T15:03:31.144Z,13.02
2022-08-24T15:08:43.201Z,14.13
2022-08-24T15:13:56.997Z,14.68
2022-08-24T15:19:11.602Z,11.68
2022-08-24T15:24:37.431Z,11.82
2022-08-24T15:29:54.638Z,11.80
2022-08-24T15:35:01.206Z,13.27
2022-08-24T15:40:15.339Z,14.18
2022-08-24T15:45:23.224Z,15.23
2022-08-24T15:50:32.085Z,14.77
2022-08-24T15:55:40.865Z,12.90
2022-08-24T16:01:01.026Z,13.55
2022-08-24T16:06:27.016Z,12.15
2022-08-24T16:11:38.426Z,17.70
2022-08-24T16:16:48.409Z,14.43
2022-08-24T16:22:01.086Z,16.38
2022-08-24T16:27:09.986Z,14.50
2022-08-24T16:32:21.732Z,13.38
2022-08-24T16:37:32.111Z,16.67
2022-08-24T16:42:38.518Z,13.25
2022-08-24T16:47:47.099Z,16.83
2022-08-24T16:52:52.666Z,11.05
2022-08-24T16:58:01.675Z,13.65
2022-08-24T17:03:12.918Z,17.92
2022-08-24T17:08:20.374Z,16.58
2022-08-24T17:13:48.274Z,14.80
2022-08-24T17:18:57.890Z,16.23
2022-08-24T17:24:04.000Z,13.73
2022-08-24T17:29:12.318Z,14.50
2022-08-24T17:34:27.757Z,12.20
2022-08-24T17:39:34.133Z,15.68
2022-08-24T17:44:39.552Z,17.80
2022-08-24T17:49:47.234Z,13.85
2022-08-24T17:54:52.113Z,15.90
2022-08-24T17:59:57.493Z,22.20
2022-08-24T18:05:05.550Z,13.90
2022-08-24T18:10:13.516Z,16.17
2022-08-24T18:15:18.380Z,14.82
2022-08-24T18:20:31.202Z,15.90
2022-08-24T18:25:40.375Z,14.77
2022-08-24T18:30:46.753Z,16.13
2022-08-24T18:35:56.095Z,12.73
2022-08-24T18:41:06.982Z,15.00
2022-08-24T18:46:13.921Z,18.00
2022-08-24T18:51:22.560Z,17.83
2022-08-24T18:56:32.886Z,18.57
2022-08-24T19:01:59.501Z,19.03
2022-08-24T19:07:07.277Z,17.17
2022-08-24T19:12:13.146Z,16.27
2022-08-24T19:17:18.598Z,19.10
2022-08-24T19:22:26.958Z,16.60
2022-08-24T19:27:31.977Z,17.23
2022-08-24T19:32:39.618Z,17.77
2022-08-24T19:37:49.796Z,18.43
2022-08-24T19:42:58.452Z,18.73
2022-08-24T19:48:04.431Z,17.87
2022-08-24T19:53:12.606Z,15.63
2022-08-24T19:58:25.361Z,20.10
2022-08-24T20:03:33.762Z,15.17
2022-08-24T20:08:41.654Z,16.40
2022-08-24T20:13:50.286Z,14.60
2022-08-24T20:18:56.198Z,18.80
2022-08-24T20:24:04.537Z,14.73
2022-08-24T20:29:15.298Z,17.17
2022-08-24T20:34:20.885Z,16.33
2022-08-24T20:39:29.590Z,19.33
2022-08-24T20:44:34.713Z,22.23
2022-08-24T20:49:40.202Z,19.97
2022-08-24T20:54:48.092Z,15.87
2022-08-24T20:59:52.986Z,19.57
2022-08-24T21:04:57.887Z,20.67
2022-08-24T21:10:09.731Z,20.13
2022-08-24T21:15:15.511Z,21.67
2022-08-24T21:20:22.043Z,21.47
2022-08-24T21:25:29.953Z,18.67
2022-08-24T21:30:35.079Z,22.33
2022-08-24T21:35:41.430Z,18.87
2022-08-24T21:40:49.578Z,18.97
2022-08-24T21:45:55.224Z,18.03
2022-08-24T21:51:00.303Z,18.13
2022-08-24T21:56:08.185Z,21.73
2022-08-24T22:01:14.953Z,18.67
2022-08-24T22:06:20.074Z,17.97
2022-08-24T22:11:27.614Z,24.23
2022-08-24T22:16:33.311Z,16.73
2022-08-24T22:21:47.829Z,19.40
2022-08-24T22:26:55.880Z,19.33
2022-08-24T22:32:00.801Z,17.13
2022-08-24T22:37:05.874Z,22.20
2022-08-24T22:42:13.610Z,19.63
2022-08-24T22:47:19.410Z,18.67
2022-08-24T22:52:25.200Z,20.30
2022-08-24T22:57:33.232Z,21.33
2022-08-24T23:02:38.557Z,20.80
2022-08-24T23:07:43.508Z,18.33
2022-08-24T23:12:51.009Z,18.03
2022-08-24T23:17:55.923Z,19.97
2022-08-24T23:23:00.856Z,18.37
2022-08-24T23:28:08.606Z,18.87
2022-08-24T23:33:13.459Z,20.07
2022-08-24T23:38:18.367Z,20.57
2022-08-24T23:43:25.849Z,18.33
2022-08-24T23:48:30.832Z,20.10
2022-08-24T23:53:36.021Z,21.23
2022-08-24T23:58:44.424Z,18.87
